Time;durP1;ratioP1;P1;durP2;ratioP2;P2;SDS_P1;SDS_P2;PMS_P1;PMS_P2;Temp;Humidity;BMP_temperature;BMP_pressure;BME280_temperature;BME280_humidity;BME280_pressure;Samples;Min_cycle;Max_cycle;Signal;HPM_P1;HPM_P2
2022/01/30 00:00:15;;;;;;;13.65;6.00;;;;;;;;;;6267123;28;20267;-77
2022/01/30 00:03:16;;;;;;;12.90;8.30;;;;;;;;;;6254246;28;20029;-77
2022/01/30 00:06:16;;;;;;;12.50;7.15;;;;;;;;;;6259036;28;20021;-77
2022/01/30 00:09:20;;;;;;;13.30;6.45;;;;;;;;;;6253406;28;20025;-77
2022/01/30 00:12:28;;;;;;;10.50;5.35;;;;;;;;;;6225112;28;20101;-77
2022/01/30 00:15:52;;;;;;;11.27;5.90;;;;;;;;;;6243049;28;20102;-77
2022/01/30 00:22:00;;;;;;;9.47;5.60;;;;;;;;;;6242461;28;20466;-77
2022/01/30 00:25:05;;;;;;;14.43;7.28;;;;;;;;;;6242722;28;20287;-77
2022/01/30 00:28:07;;;;;;;9.75;6.18;;;;;;;;;;6242475;28;20033;-77
2022/01/30 00:31:08;;;;;;;;;;;;;;;;;;6242905;28;20048;-77
2022/01/30 00:34:08;;;;;;;10.73;5.38;;;;;;;;;;6249515;28;20829;-77
2022/01/30 00:37:09;;;;;;;13.53;7.47;;;;;;;;;;6241166;28;20060;-77
2022/01/30 00:40:09;;;;;;;16.98;8.45;;;;;;;;;;6224373;28;20260;-77
2022/01/30 00:43:10;;;;;;;18.13;8.55;;;;;;;;;;6242453;28;20045;-76
2022/01/30 00:46:10;;;;;;;16.77;7.68;;;;;;;;;;6242136;28;20023;-76
2022/01/30 00:49:10;;;;;;;14.27;7.30;;;;;;;;;;6224996;28;20022;-76
2022/01/30 00:52:10;;;;;;;9.40;5.35;;;;;;;;;;6240317;28;20267;-76
2022/01/30 00:55:11;;;;;;;13.43;7.13;;;;;;;;;;6248930;28;20409;-75
2022/01/30 00:58:11;;;;;;;6.60;4.53;;;;;;;;;;6266856;28;20115;-75
2022/01/30 01:01:11;;;;;;;9.83;4.77;;;;;;;;;;6265998;28;20021;-75
2022/01/30 01:04:11;;;;;;;13.67;6.67;;;;;;;;;;6245529;28;20280;-75
2022/01/30 01:07:23;;;;;;;10.10;5.97;;;;;;;;;;6265800;28;20256;-75
2022/01/30 01:10:32;;;;;;;12.30;6.78;;;;;;;;;;6245236;28;20268;-75
2022/01/30 01:23:27;;;;;;;11.70;7.13;;;;;;;;;;6251593;28;20029;-76
2022/01/30 01:26:27;;;;;;;14.15;7.82;;;;;;;;;;6251657;28;20021;-76
2022/01/30 01:29:27;;;;;;;9.15;5.53;;;;;;;;;;6250725;28;20041;-76
2022/01/30 01:32:27;;;;;;;10.93;6.60;;;;;;;;;;6271024;28;20017;-76
2022/01/30 01:35:27;;;;;;;12.83;5.10;;;;;;;;;;6252768;28;20356;-77
2022/01/30 01:38:28;;;;;;;10.70;6.55;;;;;;;;;;6271156;28;20255;-76
2022/01/30 01:41:29;;;;;;;15.93;8.73;;;;;;;;;;6270557;28;20021;-75
2022/01/30 01:44:38;;;;;;;14.85;8.98;;;;;;;;;;6270769;28;20283;-76
2022/01/30 01:47:38;;;;;;;12.40;5.88;;;;;;;;;;6270863;28;20091;-76
2022/01/30 01:50:39;;;;;;;9.37;5.33;;;;;;;;;;6270845;28;20033;-76
2022/01/30 01:53:40;;;;;;;9.93;4.45;;;;;;;;;;6252314;28;20414;-76
2022/01/30 01:56:40;;;;;;;6.47;2.90;;;;;;;;;;6257287;28;20033;-76
2022/01/30 01:59:40;;;;;;;6.93;2.70;;;;;;;;;;6234471;28;20408;-76
2022/01/30 02:02:41;;;;;;;8.23;2.40;;;;;;;;;;6261501;28;20291;-75
2022/01/30 02:05:47;;;;;;;6.30;2.10;;;;;;;;;;6256843;28;20029;-75
2022/01/30 02:08:53;;;;;;;12.80;3.28;;;;;;;;;;6242902;28;20491;-75
2022/01/30 02:11:54;;;;;;;11.32;3.42;;;;;;;;;;6245021;28;20151;-75
2022/01/30 02:25:26;;;;;;;9.45;2.92;;;;;;;;;;6245415;28;20393;-74
2022/01/30 02:28:28;;;;;;;13.98;3.05;;;;;;;;;;6245155;28;20059;-74
2022/01/30 02:31:28;;;;;;;8.80;2.80;;;;;;;;;;6265736;28;20041;-75
2022/01/30 02:34:29;;;;;;;12.63;3.65;;;;;;;;;;6269742;28;20171;-76
2022/01/30 02:37:29;;;;;;;9.70;2.38;;;;;;;;;;6251374;28;20036;-77
2022/01/30 02:40:34;;;;;;;6.13;1.90;;;;;;;;;;6269815;28;20071;-77
2022/01/30 02:43:42;;;;;;;18.40;4.22;;;;;;;;;;6251446;28;20115;-77
2022/01/30 02:46:45;;;;;;;7.22;2.80;;;;;;;;;;6251743;28;20025;-77
2022/01/30 02:50:08;;;;;;;7.93;2.45;;;;;;;;;;6262191;28;20021;-77
2022/01/30 02:53:09;;;;;;;6.63;2.85;;;;;;;;;;6259375;28;20445;-77
2022/01/30 02:56:09;;;;;;;11.07;2.83;;;;;;;;;;6241851;28;20032;-77
2022/01/30 02:59:10;;;;;;;10.17;2.70;;;;;;;;;;6229151;28;20392;-77
2022/01/30 03:02:10;;;;;;;7.72;3.75;;;;;;;;;;6264246;28;20975;-77
2022/01/30 03:05:10;;;;;;;14.60;3.30;;;;;;;;;;6251623;28;20028;-77
2022/01/30 03:08:10;;;;;;;15.40;2.63;;;;;;;;;;6263757;28;20260;-77
2022/01/30 03:11:11;;;;;;;11.15;3.65;;;;;;;;;;6226114;28;20275;-77
2022/01/30 03:14:11;;;;;;;8.55;1.83;;;;;;;;;;6244065;28;20022;-77
2022/01/30 03:17:11;;;;;;;15.00;4.00;;;;;;;;;;6244458;28;20144;-77
2022/01/30 03:20:11;;;;;;;6.25;2.53;;;;;;;;;;6226110;28;20780;-77
2022/01/30 03:23:11;;;;;;;12.32;3.50;;;;;;;;;;6244026;28;20036;-77
2022/01/30 03:26:13;;;;;;;3.93;1.97;;;;;;;;;;6262950;28;20013;-77
2022/01/30 03:29:13;;;;;;;11.43;3.38;;;;;;;;;;6250651;28;20691;-77
2022/01/30 03:32:14;;;;;;;10.73;3.10;;;;;;;;;;6267906;28;20105;-77
2022/01/30 03:35:14;;;;;;;4.35;2.63;;;;;;;;;;6250448;28;20259;-77
2022/01/30 03:38:15;;;;;;;8.40;2.80;;;;;;;;;;6268519;28;20021;-77
2022/01/30 03:41:15;;;;;;;4.47;1.65;;;;;;;;;;6250285;28;20047;-77
2022/01/30 03:44:15;;;;;;;5.90;2.38;;;;;;;;;;6268303;28;20025;-77
2022/01/30 03:47:16;;;;;;;14.63;2.42;;;;;;;;;;6268383;28;20309;-77
2022/01/30 03:50:16;;;;;;;7.87;2.57;;;;;;;;;;6250314;28;20021;-77
2022/01/30 03:53:16;;;;;;;10.07;2.27;;;;;;;;;;6266006;28;20597;-77
2022/01/30 03:56:16;;;;;;;10.40;2.73;;;;;;;;;;6257826;28;20264;-77
2022/01/30 03:59:16;;;;;;;8.30;1.73;;;;;;;;;;6232508;28;20277;-77
2022/01/30 04:02:17;;;;;;;5.57;1.57;;;;;;;;;;6263616;28;20073;-76
2022/01/30 04:05:17;;;;;;;6.13;2.57;;;;;;;;;;6267982;28;20794;-76
2022/01/30 04:08:17;;;;;;;8.60;2.60;;;;;;;;;;6261668;28;20259;-77
2022/01/30 04:11:17;;;;;;;12.23;3.10;;;;;;;;;;6260593;28;20287;-77
2022/01/30 04:14:18;;;;;;;9.40;2.60;;;;;;;;;;6249834;28;20369;-77
2022/01/30 04:17:19;;;;;;;10.13;1.75;;;;;;;;;;6267570;28;20027;-76
2022/01/30 04:20:19;;;;;;;8.45;2.50;;;;;;;;;;6267954;28;20427;-76
2022/01/30 04:23:19;;;;;;;10.73;2.95;;;;;;;;;;6244459;28;20159;-76
2022/01/30 04:26:19;;;;;;;11.67;2.70;;;;;;;;;;6241461;28;20097;-76
2022/01/30 04:29:20;;;;;;;7.40;2.30;;;;;;;;;;6246289;28;20291;-76
2022/01/30 04:32:20;;;;;;;10.10;2.33;;;;;;;;;;6249116;28;20256;-76
2022/01/30 04:35:26;;;;;;;10.13;3.05;;;;;;;;;;6248906;28;20516;-77
2022/01/30 04:38:35;;;;;;;8.98;3.05;;;;;;;;;;6267787;28;20484;-77
2022/01/30 04:57:53;;;;;;;13.13;2.92;;;;;;;;;;6249649;28;20033;-77
2022/01/30 05:01:02;;;;;;;5.03;2.55;;;;;;;;;;6263886;28;20020;-77
2022/01/30 05:10:21;;;;;;;8.05;2.65;;;;;;;;;;6249064;28;20036;-77
2022/01/30 05:13:25;;;;;;;8.63;3.33;;;;;;;;;;6246724;28;20516;-77
2022/01/30 05:16:25;;;;;;;2.55;1.10;;;;;;;;;;6232464;28;20282;-77
2022/01/30 05:19:26;;;;;;;13.32;3.85;;;;;;;;;;6246848;28;20381;-77
2022/01/30 05:22:26;;;;;;;6.00;3.15;;;;;;;;;;6244980;28;20404;-77
2022/01/30 05:25:26;;;;;;;4.53;1.80;;;;;;;;;;6262005;28;20028;-77
2022/01/30 05:28:27;;;;;;;8.13;2.10;;;;;;;;;;6260653;28;20514;-77
2022/01/30 05:31:27;;;;;;;12.85;2.80;;;;;;;;;;6265216;28;20458;-77
2022/01/30 05:34:28;;;;;;;15.35;3.25;;;;;;;;;;6244039;28;20029;-77
2022/01/30 05:37:28;;;;;;;15.60;2.83;;;;;;;;;;6251097;28;20025;-77
2022/01/30 05:40:28;;;;;;;7.93;2.67;;;;;;;;;;6231486;28;20033;-77
2022/01/30 05:43:31;;;;;;;7.95;2.88;;;;;;;;;;6245968;28;20152;-77
2022/01/30 05:46:37;;;;;;;9.57;2.67;;;;;;;;;;6261531;28;20473;-77
2022/01/30 05:49:37;;;;;;;14.90;2.97;;;;;;;;;;6249768;28;20127;-77
2022/01/30 05:52:37;;;;;;;7.45;2.83;;;;;;;;;;6242658;28;20103;-77
2022/01/30 05:55:38;;;;;;;10.70;3.30;;;;;;;;;;6263980;28;20028;-77
2022/01/30 05:58:38;;;;;;;17.63;2.73;;;;;;;;;;6271042;28;20291;-77
2022/01/30 06:01:38;;;;;;;12.32;2.85;;;;;;;;;;6269235;28;20380;-77
2022/01/30 06:04:39;;;;;;;10.30;3.88;;;;;;;;;;6267839;28;20439;-77
2022/01/30 06:07:47;;;;;;;10.23;2.47;;;;;;;;;;6245847;28;20033;-77
2022/01/30 06:10:47;;;;;;;5.85;2.13;;;;;;;;;;6246213;28;20033;-77
2022/01/30 06:13:48;;;;;;;9.43;2.47;;;;;;;;;;6245451;28;20029;-77
2022/01/30 06:16:49;;;;;;;6.03;2.70;;;;;;;;;;6248502;28;20033;-77
2022/01/30 06:19:49;;;;;;;14.48;3.25;;;;;;;;;;6236454;28;20271;-77
2022/01/30 06:22:49;;;;;;;9.32;2.08;;;;;;;;;;6261021;28;20021;-77
2022/01/30 06:25:49;;;;;;;8.57;2.43;;;;;;;;;;6257771;28;20388;-77
2022/01/30 06:28:50;;;;;;;7.00;2.17;;;;;;;;;;6246295;28;20268;-77
2022/01/30 06:31:50;;;;;;;10.25;2.97;;;;;;;;;;6269359;28;20750;-77
2022/01/30 06:34:51;;;;;;;6.18;2.33;;;;;;;;;;6269567;28;20028;-77
2022/01/30 06:37:51;;;;;;;7.10;2.90;;;;;;;;;;6266957;28;20394;-77
2022/01/30 06:40:51;;;;;;;10.50;2.58;;;;;;;;;;6244491;28;20299;-77
2022/01/30 06:43:51;;;;;;;8.07;2.25;;;;;;;;;;6245412;28;20029;-76
2022/01/30 06:46:52;;;;;;;9.35;2.67;;;;;;;;;;6255206;28;20022;-77
2022/01/30 06:49:52;;;;;;;4.85;2.53;;;;;;;;;;6267360;28;20499;-77
2022/01/30 06:52:52;;;;;;;2.70;1.25;;;;;;;;;;6267884;28;20028;-77
2022/01/30 06:55:52;;;;;;;5.35;2.28;;;;;;;;;;6244437;28;20029;-77
2022/01/30 06:58:56;;;;;;;10.23;2.90;;;;;;;;;;6244706;28;20358;-77
2022/01/30 07:01:56;;;;;;;5.75;1.75;;;;;;;;;;6245547;28;20313;-78
2022/01/30 07:04:56;;;;;;;10.87;3.30;;;;;;;;;;6250887;28;20039;-77
2022/01/30 07:07:56;;;;;;;9.45;3.35;;;;;;;;;;6257518;28;20255;-77
2022/01/30 07:10:56;;;;;;;8.25;3.67;;;;;;;;;;6232560;28;20277;-77
2022/01/30 07:13:57;;;;;;;3.33;1.92;;;;;;;;;;6242365;28;20337;-77
2022/01/30 07:16:58;;;;;;;8.80;3.33;;;;;;;;;;6250912;28;20245;-77
2022/01/30 07:19:58;;;;;;;15.70;6.07;;;;;;;;;;6260262;28;20361;-77
2022/01/30 07:22:58;;;;;;;10.60;5.55;;;;;;;;;;6253835;28;20029;-77
2022/01/30 07:25:58;;;;;;;8.83;5.10;;;;;;;;;;6263815;28;20568;-77
2022/01/30 07:28:59;;;;;;;6.40;2.28;;;;;;;;;;6256342;28;20325;-77
2022/01/30 07:31:59;;;;;;;9.65;3.90;;;;;;;;;;6242625;28;20032;-77
2022/01/30 07:34:59;;;;;;;7.97;2.93;;;;;;;;;;6243116;28;20040;-77
2022/01/30 07:38:00;;;;;;;9.27;3.57;;;;;;;;;;6240055;28;20286;-77
2022/01/30 07:41:00;;;;;;;8.18;3.78;;;;;;;;;;6237906;28;20255;-77
2022/01/30 07:44:01;;;;;;;11.20;3.80;;;;;;;;;;6249278;28;20034;-77
2022/01/30 07:47:01;;;;;;;9.93;3.40;;;;;;;;;;6243658;28;20354;-77
2022/01/30 07:50:02;;;;;;;7.95;2.95;;;;;;;;;;6225440;28;20424;-77
2022/01/30 07:53:02;;;;;;;6.53;2.80;;;;;;;;;;6241498;28;20427;-77
2022/01/30 07:56:03;;;;;;;5.72;2.67;;;;;;;;;;6267959;28;20530;-77
2022/01/30 07:59:03;;;;;;;10.52;2.53;;;;;;;;;;6249846;28;20111;-78
2022/01/30 08:02:03;;;;;;;10.03;3.17;;;;;;;;;;6264632;28;20032;-77
2022/01/30 08:05:03;;;;;;;7.70;2.70;;;;;;;;;;6231012;28;20275;-77
2022/01/30 08:08:04;;;;;;;11.45;4.70;;;;;;;;;;6263363;28;20025;-77
2022/01/30 08:11:07;;;;;;;11.02;4.32;;;;;;;;;;6241819;28;20500;-77
2022/01/30 08:14:07;;;;;;;9.00;3.70;;;;;;;;;;6242730;28;20017;-77
2022/01/30 08:17:07;;;;;;;9.80;3.80;;;;;;;;;;6225311;28;20060;-77
2022/01/30 08:20:08;;;;;;;8.02;3.95;;;;;;;;;;6242878;28;20321;-77
2022/01/30 08:23:12;;;;;;;10.98;3.85;;;;;;;;;;6224979;28;20029;-78
2022/01/30 08:26:12;;;;;;;6.93;2.50;;;;;;;;;;6242412;28;20137;-77
2022/01/30 08:29:12;;;;;;;12.93;5.00;;;;;;;;;;6227607;28;20049;-77
2022/01/30 08:32:13;;;;;;;6.30;2.58;;;;;;;;;;6259717;28;20263;-77
2022/01/30 08:35:14;;;;;;;8.98;2.40;;;;;;;;;;6265465;28;20350;-77
2022/01/30 08:38:17;;;;;;;10.18;3.75;;;;;;;;;;6255730;28;20029;-77
2022/01/30 08:41:18;;;;;;;31.17;14.52;;;;;;;;;;6245142;28;20116;-77
2022/01/30 08:44:18;;;;;;;13.63;4.47;;;;;;;;;;6241132;28;20025;-77
2022/01/30 08:47:18;;;;;;;18.10;5.93;;;;;;;;;;6290576;28;20459;-77
2022/01/30 08:50:19;;;;;;;21.87;8.77;;;;;;;;;;6273100;28;20750;-77
2022/01/30 08:53:20;;;;;;;16.13;5.20;;;;;;;;;;6252701;28;20267;-77
2022/01/30 08:56:21;;;;;;;27.08;7.93;;;;;;;;;;6247925;28;20090;-77
2022/01/30 08:59:22;;;;;;;27.15;7.57;;;;;;;;;;6265606;28;20021;-77
2022/01/30 09:02:22;;;;;;;9.00;4.20;;;;;;;;;;6253214;28;20048;-77
2022/01/30 09:05:24;;;;;;;11.52;3.42;;;;;;;;;;6240789;28;20044;-77
2022/01/30 09:08:24;;;;;;;22.20;9.55;;;;;;;;;;6248410;28;20024;-78
2022/01/30 09:11:24;;;;;;;25.83;7.63;;;;;;;;;;6264908;28;20393;-77
2022/01/30 09:14:25;;;;;;;19.03;8.03;;;;;;;;;;6247675;28;20354;-77
2022/01/30 09:17:27;;;;;;;35.45;16.63;;;;;;;;;;6235393;28;20280;-78
2022/01/30 09:20:28;;;;;;;28.05;11.13;;;;;;;;;;6232772;28;20101;-77
2022/01/30 09:23:28;;;;;;;18.27;6.68;;;;;;;;;;6248901;28;20037;-78
2022/01/30 09:26:28;;;;;;;20.27;7.03;;;;;;;;;;6251684;28;20045;-77
2022/01/30 09:29:29;;;;;;;16.10;7.20;;;;;;;;;;6234511;28;20738;-77
2022/01/30 09:32:30;;;;;;;17.35;5.93;;;;;;;;;;6246770;28;20268;-77
2022/01/30 09:35:30;;;;;;;10.10;4.25;;;;;;;;;;6253206;28;20040;-77
2022/01/30 09:38:30;;;;;;;13.32;4.82;;;;;;;;;;6245254;28;20026;-77
2022/01/30 09:41:32;;;;;;;9.50;3.37;;;;;;;;;;6245028;28;20044;-78
2022/01/30 09:44:39;;;;;;;13.40;5.03;;;;;;;;;;6245149;28;20801;-77
2022/01/30 09:47:40;;;;;;;12.85;4.43;;;;;;;;;;6245092;28;20078;-77
2022/01/30 09:50:41;;;;;;;10.45;3.25;;;;;;;;;;6235558;28;20009;-77
2022/01/30 09:53:42;;;;;;;22.85;5.95;;;;;;;;;;6264869;28;20044;-78
2022/01/30 09:56:42;;;;;;;6.47;3.47;;;;;;;;;;6237868;28;20029;-78
2022/01/30 09:59:42;;;;;;;8.73;3.93;;;;;;;;;;6233804;28;20078;-77
2022/01/30 10:02:43;;;;;;;17.88;7.43;;;;;;;;;;6243289;28;20317;-77
2022/01/30 10:06:02;;;;;;;13.07;5.18;;;;;;;;;;6247664;28;20434;-77
2022/01/30 10:09:24;;;;;;;20.00;6.85;;;;;;;;;;6268228;28;20021;-77
2022/01/30 10:12:28;;;;;;;14.05;4.57;;;;;;;;;;6227896;28;20079;-77
2022/01/30 10:15:29;;;;;;;22.80;10.10;;;;;;;;;;6247263;28;20021;-77
2022/01/30 10:18:33;;;;;;;9.40;4.28;;;;;;;;;;6259945;28;20118;-77
2022/01/30 10:21:33;;;;;;;7.97;4.55;;;;;;;;;;6227966;28;20029;-77
2022/01/30 10:24:42;;;;;;;8.65;3.20;;;;;;;;;;6246046;28;20056;-78
2022/01/30 10:27:42;;;;;;;8.10;3.47;;;;;;;;;;6245853;28;20024;-77
2022/01/30 10:30:43;;;;;;;8.43;2.93;;;;;;;;;;6261232;28;20037;-77
2022/01/30 10:33:50;;;;;;;18.63;7.50;;;;;;;;;;6252220;28;20694;-77
2022/01/30 10:36:50;;;;;;;13.30;4.00;;;;;;;;;;6270051;28;20032;-77
2022/01/30 10:39:57;;;;;;;29.48;15.63;;;;;;;;;;6251732;28;20017;-76
2022/01/30 10:42:57;;;;;;;32.58;14.30;;;;;;;;;;6250450;28;20025;-76
2022/01/30 10:45:57;;;;;;;22.67;7.45;;;;;;;;;;6251677;28;20028;-76
2022/01/30 10:48:58;;;;;;;18.67;7.17;;;;;;;;;;6251781;28;20299;-77
2022/01/30 10:51:59;;;;;;;20.13;5.95;;;;;;;;;;6250894;28;20627;-77
2022/01/30 10:55:04;;;;;;;11.50;5.30;;;;;;;;;;6268606;28;20484;-77
2022/01/30 10:58:06;;;;;;;15.35;4.32;;;;;;;;;;6252456;28;20167;-76
2022/01/30 11:01:06;;;;;;;14.98;4.25;;;;;;;;;;6261428;28;20079;-76
2022/01/30 11:04:07;;;;;;;12.65;5.00;;;;;;;;;;6253334;28;20476;-77
2022/01/30 11:07:08;;;;;;;11.50;5.07;;;;;;;;;;6252916;28;20014;-77
2022/01/30 11:10:14;;;;;;;12.85;4.90;;;;;;;;;;6258531;28;20021;-77
2022/01/30 11:13:31;;;;;;;26.83;11.00;;;;;;;;;;6247378;28;20049;-77
2022/01/30 11:19:52;;;;;;;27.98;11.32;;;;;;;;;;6252961;28;20025;-77
2022/01/30 11:22:54;;;;;;;18.85;8.60;;;;;;;;;;6252920;28;20030;-77
2022/01/30 11:25:54;;;;;;;10.90;3.67;;;;;;;;;;6235739;28;20014;-77
2022/01/30 11:28:55;;;;;;;16.10;5.68;;;;;;;;;;6243144;28;20431;-77
2022/01/30 11:31:55;;;;;;;15.30;5.05;;;;;;;;;;6256437;28;20031;-77
2022/01/30 11:34:56;;;;;;;10.65;4.35;;;;;;;;;;6250845;28;20025;-77
2022/01/30 11:37:56;;;;;;;15.07;5.85;;;;;;;;;;6268451;28;20067;-76
2022/01/30 11:41:23;;;;;;;10.50;5.95;;;;;;;;;;6240427;28;20120;-76
2022/01/30 11:44:25;;;;;;;46.00;15.63;;;;;;;;;;6262594;28;20037;-76
2022/01/30 11:47:26;;;;;;;19.10;8.48;;;;;;;;;;6268175;28;20021;-76
2022/01/30 11:50:30;;;;;;;24.45;11.60;;;;;;;;;;6268534;28;20024;-76
2022/01/30 11:53:30;;;;;;;36.30;15.88;;;;;;;;;;6257665;28;20036;-76
2022/01/30 11:56:31;;;;;;;18.13;6.37;;;;;;;;;;6238183;28;20480;-76
2022/01/30 11:59:35;;;;;;;29.90;14.35;;;;;;;;;;6230457;28;20259;-76
2022/01/30 12:02:36;;;;;;;24.73;7.30;;;;;;;;;;6260248;28;20026;-77
2022/01/30 12:05:36;;;;;;;27.90;11.98;;;;;;;;;;6234305;28;20074;-77
2022/01/30 12:08:47;;;;;;;22.48;10.90;;;;;;;;;;6237585;28;20021;-77
2022/01/30 12:11:55;;;;;;;13.90;7.57;;;;;;;;;;6252457;28;20018;-77
2022/01/30 12:14:56;;;;;;;32.58;15.15;;;;;;;;;;6249821;28;20503;-77
2022/01/30 12:17:56;;;;;;;21.52;9.48;;;;;;;;;;6245483;28;20021;-77
2022/01/30 12:20:57;;;;;;;28.00;7.75;;;;;;;;;;6251915;28;20025;-77
2022/01/30 12:24:17;;;;;;;25.92;9.82;;;;;;;;;;6240785;28;20118;-77
2022/01/30 12:27:17;;;;;;;20.95;8.73;;;;;;;;;;6265888;28;20017;-77
2022/01/30 12:30:35;;;;;;;15.35;5.78;;;;;;;;;;6258688;28;20044;-77
2022/01/30 12:33:37;;;;;;;19.35;7.05;;;;;;;;;;6265341;28;20060;-77
2022/01/30 12:36:39;;;;;;;18.73;7.10;;;;;;;;;;6248479;28;20029;-77
2022/01/30 12:39:39;;;;;;;;;;;;;;;;;;6242081;28;20033;-77
2022/01/30 12:42:40;;;;;;;24.98;9.02;;;;;;;;;;6243015;28;20002;-77
2022/01/30 12:45:40;;;;;;;24.05;6.00;;;;;;;;;;6242706;28;20103;-77
2022/01/30 12:48:40;;;;;;;19.60;7.00;;;;;;;;;;6241609;28;20496;-77
2022/01/30 12:51:43;;;;;;;19.40;8.98;;;;;;;;;;6247720;28;20413;-76
2022/01/30 12:54:44;;;;;;;20.98;8.27;;;;;;;;;;6265049;28;20028;-75
2022/01/30 12:57:45;;;;;;;23.13;8.50;;;;;;;;;;6243394;28;20347;-75
2022/01/30 13:00:45;;;;;;;14.43;5.05;;;;;;;;;;6238376;28;20481;-75
2022/01/30 13:03:45;;;;;;;20.77;6.50;;;;;;;;;;6261207;28;20014;-75
2022/01/30 13:06:47;;;;;;;28.88;10.77;;;;;;;;;;6263334;28;20303;-75
2022/01/30 13:09:47;;;;;;;25.50;9.98;;;;;;;;;;6254449;28;20020;-75
2022/01/30 13:12:47;;;;;;;21.77;5.80;;;;;;;;;;6270481;28;20111;-75
2022/01/30 13:15:55;;;;;;;29.33;10.75;;;;;;;;;;6269957;28;20259;-75
2022/01/30 13:18:55;;;;;;;23.70;8.80;;;;;;;;;;6270599;28;20358;-77
2022/01/30 13:21:56;;;;;;;20.50;7.13;;;;;;;;;;6269270;28;20075;-77
2022/01/30 13:24:57;;;;;;;20.50;7.65;;;;;;;;;;6252888;28;20025;-77
2022/01/30 13:27:57;;;;;;;19.97;6.27;;;;;;;;;;6253403;28;20115;-77
2022/01/30 13:31:13;;;;;;;23.83;9.90;;;;;;;;;;6253197;28;20292;-77
2022/01/30 13:34:15;;;;;;;21.23;7.05;;;;;;;;;;6265765;28;20353;-77
2022/01/30 13:37:16;;;;;;;;;;;;;;;;;;6270740;28;20016;-77
2022/01/30 13:40:25;;;;;;;18.55;5.70;;;;;;;;;;6266210;28;19915;-77
2022/01/30 13:43:30;;;;;;;20.73;9.15;;;;;;;;;;6258521;28;20574;-77
2022/01/30 13:47:03;;;;;;;35.60;11.98;;;;;;;;;;6242370;28;20081;-77
2022/01/30 13:49:57;;;;;;;27.92;10.07;;;;;;;;;;6250231;28;20362;-77
2022/01/30 13:53:01;;;;;;;25.77;8.77;;;;;;;;;;6243502;28;20009;-77
2022/01/30 13:56:03;;;;;;;19.17;7.13;;;;;;;;;;6268940;28;20062;-77
2022/01/30 13:59:03;;;;;;;24.58;10.02;;;;;;;;;;6269411;28;20017;-77
2022/01/30 14:02:06;;;;;;;35.47;10.65;;;;;;;;;;6261548;28;20013;-77
2022/01/30 14:05:25;;;;;;;25.30;9.63;;;;;;;;;;6259226;28;20028;-77
2022/01/30 14:08:25;;;;;;;36.42;11.27;;;;;;;;;;6254693;28;20127;-77
2022/01/30 14:11:30;;;;;;;46.40;20.85;;;;;;;;;;6264594;28;20064;-78
2022/01/30 14:14:34;;;;;;;29.00;9.55;;;;;;;;;;6236473;28;20048;-77
2022/01/30 14:17:39;;;;;;;29.65;10.13;;;;;;;;;;6244387;28;20025;-77
2022/01/30 14:20:44;;;;;;;28.10;9.70;;;;;;;;;;6259479;28;20510;-77
2022/01/30 14:23:45;;;;;;;23.25;9.25;;;;;;;;;;6238776;28;20067;-77
2022/01/30 14:26:45;;;;;;;22.10;8.55;;;;;;;;;;6251683;28;20024;-77
2022/01/30 14:29:46;;;;;;;33.45;9.98;;;;;;;;;;6237714;28;20434;-76
2022/01/30 14:32:46;;;;;;;27.13;10.25;;;;;;;;;;6250738;28;20022;-76
2022/01/30 14:35:46;;;;;;;37.53;10.75;;;;;;;;;;6258168;28;20027;-76
2022/01/30 14:38:48;;;;;;;33.80;13.48;;;;;;;;;;6256783;28;20040;-76
2022/01/30 14:41:49;;;;;;;32.47;9.63;;;;;;;;;;6267308;28;20021;-77
2022/01/30 14:44:49;;;;;;;28.90;10.45;;;;;;;;;;6249142;28;20623;-77
2022/01/30 14:47:50;;;;;;;33.15;13.18;;;;;;;;;;6268953;28;20028;-76
2022/01/30 14:50:50;;;;;;;38.33;13.88;;;;;;;;;;6268493;28;20017;-76
2022/01/30 14:53:50;;;;;;;14.43;6.45;;;;;;;;;;6265263;28;20059;-76
2022/01/30 14:56:50;;;;;;;20.37;7.47;;;;;;;;;;6262166;28;20067;-75
2022/01/30 14:59:51;;;;;;;31.55;9.20;;;;;;;;;;6267031;28;20339;-75
2022/01/30 15:02:51;;;;;;;27.40;9.18;;;;;;;;;;6259857;28;20029;-75
2022/01/30 15:05:52;;;;;;;19.48;6.55;;;;;;;;;;6267973;28;20053;-75
2022/01/30 15:08:52;;;;;;;35.05;10.93;;;;;;;;;;6260896;28;20380;-75
2022/01/30 15:11:52;;;;;;;30.70;10.85;;;;;;;;;;6255025;28;20076;-75
2022/01/30 15:14:53;;;;;;;24.20;8.20;;;;;;;;;;6260690;28;20029;-75
2022/01/30 15:17:54;;;;;;;28.98;9.52;;;;;;;;;;6224540;28;20036;-75
2022/01/30 15:20:54;;;;;;;43.42;15.45;;;;;;;;;;6245133;28;20074;-75
2022/01/30 15:23:54;;;;;;;44.20;12.27;;;;;;;;;;6256760;28;20021;-75
2022/01/30 15:26:54;;;;;;;24.80;9.70;;;;;;;;;;6248311;28;20259;-76
2022/01/30 15:29:55;;;;;;;24.60;11.20;;;;;;;;;;6258832;28;20275;-75
2022/01/30 15:32:55;;;;;;;23.73;7.25;;;;;;;;;;6259978;28;20048;-75
2022/01/30 15:35:56;;;;;;;24.57;10.00;;;;;;;;;;6258836;28;20382;-75
2022/01/30 15:38:56;;;;;;;20.00;8.45;;;;;;;;;;6267315;28;20803;-77
2022/01/30 15:41:56;;;;;;;27.30;10.75;;;;;;;;;;6266954;28;20039;-76
2022/01/30 15:51:16;;;;;;;23.02;8.07;;;;;;;;;;6265740;28;20064;-77
2022/01/30 15:54:16;;;;;;;30.93;9.80;;;;;;;;;;6249749;28;20035;-77
2022/01/30 15:57:18;;;;;;;26.85;10.00;;;;;;;;;;6249643;28;20267;-77
2022/01/30 16:00:18;;;;;;;37.83;11.10;;;;;;;;;;6254606;28;20499;-77
2022/01/30 16:03:19;;;;;;;22.33;7.38;;;;;;;;;;6253334;28;20025;-77
2022/01/30 16:06:19;;;;;;;41.03;16.52;;;;;;;;;;6258527;28;20070;-77
2022/01/30 16:09:22;;;;;;;20.23;9.27;;;;;;;;;;6234564;28;20128;-77
2022/01/30 16:15:41;;;;;;;19.95;8.60;;;;;;;;;;6241437;28;20044;-77
2022/01/30 16:18:42;;;;;;;25.25;8.82;;;;;;;;;;6245029;28;20829;-77
2022/01/30 16:21:42;;;;;;;39.05;13.32;;;;;;;;;;6241913;28;20507;-77
2022/01/30 16:24:42;;;;;;;31.43;11.53;;;;;;;;;;6242975;28;20499;-77
2022/01/30 16:27:43;;;;;;;32.43;9.97;;;;;;;;;;6225087;28;20264;-77
2022/01/30 16:30:43;;;;;;;32.05;9.70;;;;;;;;;;6257684;28;20287;-77
2022/01/30 16:33:44;;;;;;;27.88;9.57;;;;;;;;;;6248008;28;20025;-77
2022/01/30 16:36:44;;;;;;;30.80;9.35;;;;;;;;;;6266052;28;20068;-77
2022/01/30 16:39:44;;;;;;;34.83;10.30;;;;;;;;;;6247583;28;20477;-77
2022/01/30 16:42:45;;;;;;;26.45;10.43;;;;;;;;;;6247896;28;20382;-77
2022/01/30 16:45:48;;;;;;;17.73;6.95;;;;;;;;;;6241481;28;20022;-77
2022/01/30 16:48:48;;;;;;;21.83;8.65;;;;;;;;;;6254975;28;20021;-77
2022/01/30 16:51:49;;;;;;;23.77;8.90;;;;;;;;;;6240926;28;20072;-78
2022/01/30 16:54:53;;;;;;;22.42;7.15;;;;;;;;;;6253476;28;20302;-77
2022/01/30 16:57:54;;;;;;;27.92;9.73;;;;;;;;;;6257339;28;20024;-77
2022/01/30 17:00:54;;;;;;;19.87;6.93;;;;;;;;;;6242242;28;20052;-76
2022/01/30 17:03:54;;;;;;;14.87;6.50;;;;;;;;;;6244912;28;20288;-76
2022/01/30 17:06:55;;;;;;;27.45;7.20;;;;;;;;;;6243953;28;20670;-76
2022/01/30 17:09:56;;;;;;;17.90;6.57;;;;;;;;;;6251791;28;20009;-76
2022/01/30 17:12:58;;;;;;;24.27;9.18;;;;;;;;;;6241870;28;20080;-76
2022/01/30 17:15:59;;;;;;;38.97;12.05;;;;;;;;;;6251999;28;20083;-76
2022/01/30 17:18:59;;;;;;;27.05;10.55;;;;;;;;;;6248581;28;20428;-77
2022/01/30 17:21:59;;;;;;;28.30;9.30;;;;;;;;;;6246160;28;20027;-77
2022/01/30 17:24:59;;;;;;;22.10;7.53;;;;;;;;;;6255274;28;20283;-77
2022/01/30 17:28:01;;;;;;;23.88;6.55;;;;;;;;;;6250330;28;20010;-77
2022/01/30 17:31:06;;;;;;;22.00;8.10;;;;;;;;;;6262465;28;20495;-76
2022/01/30 17:34:07;;;;;;;15.52;6.15;;;;;;;;;;6245376;28;20045;-76
2022/01/30 17:37:07;;;;;;;28.27;10.38;;;;;;;;;;6258506;28;20025;-77
2022/01/30 17:40:08;;;;;;;28.50;8.38;;;;;;;;;;6254099;28;20021;-77
2022/01/30 17:43:08;;;;;;;24.98;7.68;;;;;;;;;;6247875;28;20496;-76
2022/01/30 17:46:08;;;;;;;22.83;7.45;;;;;;;;;;6266670;28;20100;-76
2022/01/30 17:49:09;;;;;;;27.70;7.90;;;;;;;;;;6253103;28;20485;-76
2022/01/30 17:52:09;;;;;;;17.83;6.05;;;;;;;;;;6227840;28;20026;-76
2022/01/30 17:55:10;;;;;;;33.00;10.80;;;;;;;;;;6269491;28;20028;-76
2022/01/30 17:58:10;;;;;;;43.50;10.55;;;;;;;;;;6250263;28;20282;-76
2022/01/30 18:01:10;;;;;;;18.58;7.78;;;;;;;;;;6256174;28;20099;-76
2022/01/30 18:04:10;;;;;;;28.50;6.00;;;;;;;;;;6241721;28;20096;-76
2022/01/30 18:07:11;;;;;;;34.90;10.98;;;;;;;;;;6241943;28;20290;-76
2022/01/30 18:10:11;;;;;;;31.17;9.77;;;;;;;;;;6250715;28;20021;-76
2022/01/30 18:13:11;;;;;;;37.25;15.82;;;;;;;;;;6257532;28;20346;-77
2022/01/30 18:16:11;;;;;;;27.53;8.43;;;;;;;;;;6244438;28;20047;-77
2022/01/30 18:19:12;;;;;;;13.80;6.27;;;;;;;;;;6260464;28;20661;-77
2022/01/30 18:22:13;;;;;;;37.33;6.73;;;;;;;;;;6249429;28;20256;-77
2022/01/30 18:25:13;;;;;;;25.55;7.72;;;;;;;;;;6254388;28;20318;-76
2022/01/30 18:28:13;;;;;;;25.42;6.85;;;;;;;;;;6246195;28;20082;-76
2022/01/30 18:31:13;;;;;;;29.45;8.90;;;;;;;;;;6239485;28;20041;-76
2022/01/30 18:34:14;;;;;;;27.05;6.97;;;;;;;;;;6257430;28;20024;-75
2022/01/30 18:37:20;;;;;;;16.65;6.93;;;;;;;;;;6259736;28;20259;-77
2022/01/30 18:40:36;;;;;;;19.65;8.20;;;;;;;;;;6240584;28;20098;-76
2022/01/30 18:43:37;;;;;;;39.72;12.88;;;;;;;;;;6255027;28;20021;-76
2022/01/30 18:46:37;;;;;;;36.47;12.57;;;;;;;;;;6261465;28;20203;-76
2022/01/30 18:49:38;;;;;;;13.45;5.93;;;;;;;;;;6244828;28;20016;-76
2022/01/30 18:52:38;;;;;;;36.75;11.82;;;;;;;;;;6257825;28;20017;-76
2022/01/30 18:55:39;;;;;;;39.70;10.90;;;;;;;;;;6259768;28;20480;-76